createdAt,value
2023-12-09T00:02:12.138Z,25.90
2023-12-09T00:07:15.233Z,28.35
2023-12-09T00:12:18.779Z,29.80
2023-12-09T00:17:23.150Z,26.50
2023-12-09T00:22:26.251Z,25.65
2023-12-09T00:27:29.376Z,23.75
2023-12-09T00:32:33.731Z,23.52
2023-12-09T00:37:36.763Z,27.08
2023-12-09T00:42:39.764Z,24.95
2023-12-09T00:47:44.303Z,21.23
2023-12-09T00:52:47.285Z,22.77
2023-12-09T00:57:50.316Z,26.55
2023-12-09T01:02:54.852Z,20.67
2023-12-09T01:07:58.284Z,24.52
2023-12-09T01:13:01.171Z,18.17
2023-12-09T01:18:05.709Z,23.15
2023-12-09T01:23:09.378Z,18.02
2023-12-09T01:28:12.289Z,20.80
2023-12-09T01:33:16.791Z,19.45
2023-12-09T01:38:19.794Z,14.77
2023-12-09T01:43:23.211Z,19.23
2023-12-09T01:48:28.073Z,15.68
2023-12-09T01:53:31.733Z,12.95
2023-12-09T01:58:36.914Z,14.93
2023-12-09T02:03:41.447Z,14.18
2023-12-09T02:08:44.943Z,18.98
2023-12-09T02:14:05.650Z,14.02
2023-12-09T02:19:13.920Z,18.23
2023-12-09T02:24:18.369Z,19.02
2023-12-09T02:29:23.897Z,14.93
2023-12-09T02:34:27.781Z,17.33
2023-12-09T02:39:32.784Z,20.95
2023-12-09T02:44:37.265Z,15.15
2023-12-09T02:49:40.279Z,12.88
2023-12-09T02:54:44.614Z,15.65
2023-12-09T02:59:47.574Z,13.38
2023-12-09T03:04:50.471Z,16.33
2023-12-09T03:09:54.798Z,14.77
2023-12-09T03:14:57.830Z,15.32
2023-12-09T03:20:01.010Z,15.85
2023-12-09T03:25:06.188Z,13.55
2023-12-09T03:30:10.229Z,17.77
2023-12-09T03:35:13.497Z,14.43
2023-12-09T03:40:18.113Z,13.50
2023-12-09T03:45:21.028Z,11.52
2023-12-09T03:50:23.947Z,18.83
2023-12-09T03:55:28.373Z,11.05
2023-12-09T04:00:31.619Z,21.63
2023-12-09T04:05:34.614Z,16.20
2023-12-09T04:10:38.983Z,14.32
2023-12-09T04:15:41.987Z,16.85
2023-12-09T04:20:45.034Z,13.15
2023-12-09T04:25:49.312Z,13.07
2023-12-09T04:30:52.260Z,22.25
2023-12-09T04:35:55.243Z,10.20
2023-12-09T04:40:59.867Z,14.43
2023-12-09T04:46:02.841Z,12.35
2023-12-09T04:51:06.034Z,10.80
2023-12-09T04:56:11.556Z,14.13
2023-12-09T05:01:14.527Z,12.48
2023-12-09T05:06:17.537Z,10.70
2023-12-09T05:11:21.865Z,11.43
2023-12-09T05:16:24.961Z,10.65
2023-12-09T05:21:35.335Z,11.32
2023-12-09T05:26:40.775Z,11.90
2023-12-09T05:31:43.748Z,10.77
2023-12-09T05:36:47.322Z,13.88
2023-12-09T05:41:53.086Z,12.60
2023-12-09T05:46:56.018Z,15.95
2023-12-09T05:51:58.943Z,18.75
2023-12-09T05:57:03.193Z,11.38
2023-12-09T06:02:06.423Z,13.57
2023-12-09T06:07:09.345Z,10.98
2023-12-09T06:12:13.655Z,12.68
2023-12-09T06:17:16.634Z,11.32
2023-12-09T06:22:19.644Z,7.18
2023-12-09T06:27:25.114Z,7.88
2023-12-09T06:32:28.257Z,19.10
2023-12-09T06:37:31.457Z,11.73
2023-12-09T06:42:38.244Z,8.55
2023-12-09T06:47:41.603Z,12.15
2023-12-09T06:52:44.559Z,10.63
2023-12-09T06:57:48.896Z,13.20
2023-12-09T07:02:58.972Z,11.93
2023-12-09T07:08:02.894Z,12.85
2023-12-09T07:13:07.201Z,12.55
2023-12-09T07:18:10.451Z,13.65
2023-12-09T07:23:15.315Z,13.75
2023-12-09T07:28:19.613Z,15.85
2023-12-09T07:33:22.650Z,15.55
2023-12-09T07:38:25.678Z,22.85
2023-12-09T07:43:30.225Z,22.42
2023-12-09T07:48:33.393Z,13.70
2023-12-09T07:53:36.565Z,13.15
2023-12-09T07:58:40.926Z,14.43
2023-12-09T08:03:43.963Z,13.52
2023-12-09T08:08:47.734Z,11.40
2023-12-09T08:13:52.120Z,10.38
2023-12-09T08:18:55.296Z,16.05
2023-12-09T08:23:58.348Z,18.63
2023-12-09T08:29:04.897Z,21.50
2023-12-09T08:34:07.948Z,16.77
2023-12-09T08:39:11.130Z,17.05
2023-12-09T08:44:15.993Z,20.63
2023-12-09T08:49:19.135Z,17.88
2023-12-09T08:54:22.129Z,19.63
2023-12-09T08:59:26.462Z,19.67
2023-12-09T09:04:29.503Z,16.42
2023-12-09T09:09:32.501Z,17.52
2023-12-09T09:14:37.737Z,17.52
2023-12-09T09:19:41.000Z,17.33
2023-12-09T09:24:44.486Z,22.02
2023-12-09T09:29:48.815Z,19.50
2023-12-09T09:34:52.069Z,20.08
2023-12-09T09:39:55.176Z,20.73
2023-12-09T09:45:09.354Z,15.27
2023-12-09T09:50:13.233Z,14.98
2023-12-09T09:55:17.322Z,24.27
2023-12-09T10:00:22.949Z,15.88
2023-12-09T10:05:26.473Z,13.07
2023-12-09T10:10:30.644Z,13.38
2023-12-09T10:15:35.025Z,17.67
2023-12-09T10:20:38.032Z,11.80
2023-12-09T10:25:42.316Z,12.25
2023-12-09T10:30:47.562Z,10.25
2023-12-09T10:35:50.619Z,12.68
2023-12-09T10:40:54.880Z,8.07
2023-12-09T10:45:59.293Z,13.15
2023-12-09T10:51:02.468Z,10.25
2023-12-09T10:56:07.958Z,9.30
2023-12-09T11:01:12.738Z,6.07
2023-12-09T11:06:17.647Z,5.50
2023-12-09T11:11:21.097Z,5.22
2023-12-09T11:16:25.447Z,3.78
2023-12-09T11:21:30.199Z,4.68
2023-12-09T11:26:34.982Z,2.75
2023-12-09T11:31:41.220Z,4.82
2023-12-09T11:36:45.670Z,4.40
2023-12-09T11:41:50.214Z,4.50
2023-12-09T11:46:54.954Z,5.03
2023-12-09T11:51:59.043Z,7.15
2023-12-09T11:57:02.133Z,2.80
2023-12-09T12:02:06.541Z,6.93
2023-12-09T12:07:09.535Z,9.68
2023-12-09T12:12:12.740Z,3.17
2023-12-09T12:17:18.599Z,5.63
2023-12-09T12:22:21.565Z,9.38
2023-12-09T12:27:26.862Z,7.15
2023-12-09T12:32:31.571Z,8.60
2023-12-09T12:37:34.877Z,8.05
2023-12-09T12:42:38.246Z,7.43
2023-12-09T12:47:42.898Z,11.13
2023-12-09T12:52:46.861Z,7.15
2023-12-09T12:57:49.916Z,10.35
2023-12-09T13:02:54.339Z,8.35
2023-12-09T13:07:57.275Z,9.57
2023-12-09T13:13:00.951Z,6.13
2023-12-09T13:18:06.413Z,5.80
2023-12-09T13:23:09.553Z,9.02
2023-12-09T13:28:12.697Z,11.77
2023-12-09T13:33:17.092Z,8.52
2023-12-09T13:38:20.227Z,12.23
2023-12-09T13:43:23.473Z,8.77
2023-12-09T13:48:27.982Z,6.85
2023-12-09T13:53:31.017Z,9.32
2023-12-09T13:58:33.995Z,10.13
2023-12-09T14:03:38.742Z,9.80
2023-12-09T14:08:42.347Z,14.10
2023-12-09T14:13:45.333Z,9.25
2023-12-09T14:18:49.981Z,8.05
2023-12-09T14:23:54.225Z,9.25
2023-12-09T14:28:57.528Z,8.77
2023-12-09T14:34:02.133Z,9.48
2023-12-09T14:39:07.726Z,15.90
2023-12-09T14:44:10.745Z,10.32
2023-12-09T14:49:15.213Z,11.40
2023-12-09T14:54:20.426Z,14.93
2023-12-09T14:59:24.251Z,11.00
2023-12-09T15:04:28.676Z,12.15
2023-12-09T15:09:31.844Z,10.77
2023-12-09T15:14:34.959Z,17.75
2023-12-09T15:19:39.528Z,16.48
2023-12-09T15:24:43.610Z,12.50
2023-12-09T15:29:46.708Z,10.57
2023-12-09T15:34:51.240Z,12.65
2023-12-09T15:39:54.690Z,14.05
2023-12-09T15:44:57.753Z,15.60
2023-12-09T15:50:03.015Z,15.10
2023-12-09T15:55:07.055Z,15.32
2023-12-09T16:00:11.391Z,10.35
2023-12-09T16:05:16.086Z,12.82
2023-12-09T16:10:19.474Z,17.75
2023-12-09T16:15:22.682Z,15.23
2023-12-09T16:20:27.237Z,15.30
2023-12-09T16:25:30.483Z,12.27
2023-12-09T16:30:33.690Z,16.95
2023-12-09T16:35:38.194Z,11.20
2023-12-09T16:40:41.153Z,12.50
2023-12-09T16:45:44.176Z,11.75
2023-12-09T16:50:48.621Z,8.80
2023-12-09T16:55:51.622Z,16.33
2023-12-09T17:00:54.892Z,13.40
2023-12-09T17:05:59.382Z,11.55
2023-12-09T17:11:03.016Z,14.93
2023-12-09T17:16:06.519Z,9.15
2023-12-09T17:21:11.067Z,8.23
2023-12-09T17:26:14.129Z,5.28
2023-12-09T17:31:17.189Z,11.80
2023-12-09T17:36:24.184Z,6.93
2023-12-09T17:41:27.359Z,3.30
2023-12-09T17:46:30.375Z,7.18
2023-12-09T17:51:35.026Z,6.32
2023-12-09T17:56:38.096Z,4.85
2023-12-09T18:01:42.662Z,7.70
2023-12-09T18:06:47.082Z,5.78
2023-12-09T18:11:50.066Z,2.92
2023-12-09T18:16:53.234Z,4.75
2023-12-09T18:21:57.605Z,2.42
2023-12-09T18:27:00.626Z,2.55
2023-12-09T18:32:03.662Z,5.05
2023-12-09T18:37:08.349Z,5.18
2023-12-09T18:42:11.548Z,2.97
2023-12-09T18:47:14.688Z,3.55
2023-12-09T18:52:19.250Z,1.95
2023-12-09T18:57:22.320Z,3.80
2023-12-09T19:02:25.373Z,1.00
2023-12-09T19:07:29.713Z,1.75
2023-12-09T19:12:32.753Z,1.63
2023-12-09T19:17:35.951Z,1.20
2023-12-09T19:22:40.460Z,0.95
2023-12-09T19:27:43.700Z,1.33
2023-12-09T19:32:46.690Z,0.98
2023-12-09T19:37:51.340Z,2.40
2023-12-09T19:42:56.640Z,1.17
2023-12-09T19:48:00.784Z,0.70
2023-12-09T19:53:05.298Z,1.60
2023-12-09T19:58:08.773Z,1.35
2023-12-09T20:03:12.434Z,0.90
2023-12-09T20:08:16.905Z,1.42
2023-12-09T20:13:20.688Z,1.15
2023-12-09T20:18:23.724Z,0.80
2023-12-09T20:23:28.233Z,1.23
2023-12-09T20:28:31.281Z,2.65
2023-12-09T20:33:36.275Z,1.13
2023-12-09T20:38:40.855Z,1.60
2023-12-09T20:43:45.021Z,1.23
2023-12-09T20:48:48.116Z,1.77
2023-12-09T20:53:52.928Z,1.30
2023-12-09T20:58:56.242Z,2.92
2023-12-09T21:03:59.436Z,1.50
2023-12-09T21:09:05.059Z,1.70
2023-12-09T21:14:08.961Z,1.50
2023-12-09T21:19:12.654Z,1.70
2023-12-09T21:24:17.662Z,1.33
2023-12-09T21:29:21.214Z,1.95
2023-12-09T21:34:24.305Z,2.45
2023-12-09T21:39:28.854Z,2.65
2023-12-09T21:44:31.895Z,5.75
2023-12-09T21:49:35.025Z,6.53
2023-12-09T21:54:39.734Z,6.15
2023-12-09T21:59:42.851Z,6.22
2023-12-09T22:04:45.876Z,6.43
2023-12-09T22:09:50.421Z,10.55
2023-12-09T22:14:53.628Z,9.30
2023-12-09T22:19:56.703Z,11.10
2023-12-09T22:25:01.785Z,9.13
2023-12-09T22:30:05.450Z,26.42
2023-12-09T22:35:09.224Z,22.13
2023-12-09T22:40:14.713Z,28.50
2023-12-09T22:45:17.925Z,28.25
2023-12-09T22:50:21.030Z,34.33
2023-12-09T22:55:25.380Z,25.92
2023-12-09T23:00:33.489Z,21.42
2023-12-09T23:05:39.147Z,22.40
2023-12-09T23:10:43.910Z,18.30
2023-12-09T23:15:46.935Z,26.30
2023-12-09T23:20:50.048Z,24.83
2023-12-09T23:25:54.625Z,26.23
2023-12-09T23:30:57.749Z,27.75
2023-12-09T23:36:00.799Z,20.77
2023-12-09T23:41:05.452Z,29.05
2023-12-09T23:46:08.653Z,22.77
2023-12-09T23:51:11.974Z,21.48
2023-12-09T23:56:21.541Z,29.17
